Time;durP1;ratioP1;P1;durP2;ratioP2;P2;SDS_P1;SDS_P2;PMS_P1;PMS_P2;Temp;Humidity;BMP_temperature;BMP_pressure;BME280_temperature;BME280_humidity;BME280_pressure;Samples;Min_cycle;Max_cycle;Signal;HPM_P1;HPM_P2
2022/05/01 00:01:48;;;;;;;0.10;0.10;;;11.90;99.90;12.80;88037.00;;;;5071204;28;20194;-70
2022/05/01 00:04:18;;;;;;;0.10;0.10;;;11.90;99.90;12.80;88037.00;;;;5071596;28;20404;-70
2022/05/01 00:06:46;;;;;;;0.00;0.00;;;12.00;99.90;12.80;88037.00;;;;5071784;28;20262;-70
2022/05/01 00:09:14;;;;;;;0.10;0.10;;;12.00;99.90;12.80;88037.00;;;;5091426;28;20189;-70
2022/05/01 00:11:42;;;;;;;0.10;0.10;;;11.90;99.90;12.80;88037.00;;;;5058770;28;20193;-70
2022/05/01 00:14:10;;;;;;;0.10;0.10;;;11.90;99.90;12.80;88037.00;;;;5069754;28;20674;-70
2022/05/01 00:16:38;;;;;;;0.10;0.10;;;11.90;99.90;12.80;88037.00;;;;5063090;28;20607;-71
2022/05/01 00:19:08;;;;;;;0.10;0.10;;;11.90;99.90;12.80;88037.00;;;;5091643;28;20549;-70
2022/05/01 00:21:38;;;;;;;0.10;0.10;;;11.90;99.90;12.80;88037.00;;;;5075560;28;20273;-73
2022/05/01 00:24:06;;;;;;;0.10;0.10;;;11.80;99.90;12.80;88037.00;;;;5075625;28;20231;-70
2022/05/01 00:26:35;;;;;;;0.10;0.10;;;11.80;99.90;12.80;88037.00;;;;5070565;28;20205;-70
2022/05/01 00:29:06;;;;;;;0.10;0.10;;;11.70;99.90;12.80;88037.00;;;;5070975;28;20838;-71
2022/05/01 00:31:34;;;;;;;0.10;0.10;;;11.70;99.90;12.80;88037.00;;;;5074049;28;20847;-70
2022/05/01 00:36:50;;;;;;;0.10;0.10;;;11.80;99.90;12.80;88037.00;;;;5058135;28;20648;-72
2022/05/01 00:39:18;;;;;;;0.10;0.10;;;11.90;99.90;12.80;88037.00;;;;5058216;28;20202;-72
2022/05/01 00:41:46;;;;;;;0.10;0.10;;;11.80;99.90;12.80;88037.00;;;;5075015;28;20222;-72
2022/05/01 00:44:16;;;;;;;0.08;0.08;;;11.80;99.90;12.80;88037.00;;;;5084570;28;20210;-71
2022/05/01 00:46:47;;;;;;;0.10;0.10;;;11.80;99.90;12.80;88037.00;;;;5069236;28;20185;-71
2022/05/01 00:49:17;;;;;;;0.10;0.10;;;11.80;99.90;12.80;88037.00;;;;5056685;28;21016;-71
2022/05/01 00:51:51;;;;;;;0.10;0.10;;;11.80;99.90;12.80;88037.00;;;;5072737;28;20576;-73
2022/05/01 00:54:23;;;;;;;0.10;0.10;;;11.80;99.90;12.80;88037.00;;;;5091291;28;20224;-71
2022/05/01 00:56:53;;;;;;;0.10;0.10;;;11.70;99.90;12.80;88037.00;;;;5057578;28;20216;-71
2022/05/01 00:59:22;;;;;;;0.10;0.10;;;11.70;99.90;12.80;88037.00;;;;5059196;28;20195;-71
2022/05/01 01:01:52;;;;;;;0.10;0.10;;;11.60;99.90;12.80;88037.00;;;;5068486;28;20205;-71
2022/05/01 01:04:20;;;;;;;0.10;0.10;;;11.60;99.90;12.80;88037.00;;;;5080486;28;20212;-71
2022/05/01 01:06:50;;;;;;;0.10;0.10;;;11.50;99.90;12.80;88037.00;;;;5087039;28;20197;-72
2022/05/01 01:09:19;;;;;;;0.10;0.10;;;11.40;99.90;12.80;88037.00;;;;5099774;28;20193;-71
2022/05/01 01:11:47;;;;;;;0.10;0.10;;;11.40;99.90;12.80;88037.00;;;;5082575;28;20706;-72
2022/05/01 01:14:16;;;;;;;0.00;0.00;;;11.30;99.90;12.80;88037.00;;;;5083488;28;20209;-72
2022/05/01 01:16:44;;;;;;;0.10;0.10;;;11.40;99.90;12.80;88037.00;;;;5063834;28;20194;-71
2022/05/01 01:19:13;;;;;;;0.10;0.10;;;11.40;99.90;12.80;88037.00;;;;5072741;28;20264;-70
2022/05/01 01:21:42;;;;;;;0.08;0.08;;;11.40;99.90;12.80;88037.00;;;;5077570;28;20193;-71
2022/05/01 01:24:10;;;;;;;0.10;0.10;;;11.40;99.90;12.80;88037.00;;;;5071106;28;20226;-70
2022/05/01 01:26:40;;;;;;;0.10;0.10;;;11.30;99.90;12.80;88037.00;;;;5073171;28;20216;-71
2022/05/01 01:31:53;;;;;;;0.10;0.10;;;11.10;99.90;12.80;88037.00;;;;5089807;28;20221;-70
2022/05/01 01:34:32;;;;;;;0.10;0.10;;;11.20;99.90;12.80;88037.00;;;;5088600;28;20216;-70
2022/05/01 01:37:03;;;;;;;0.10;0.10;;;11.20;99.90;12.80;88037.00;;;;5095394;28;20196;-71
2022/05/01 01:39:32;;;;;;;0.10;0.10;;;11.30;99.90;12.80;88037.00;;;;5095805;28;20262;-70
2022/05/01 01:42:05;;;;;;;0.00;0.00;;;11.40;99.90;12.80;88037.00;;;;5071582;28;20681;-71
2022/05/01 01:44:37;;;;;;;0.00;0.00;;;11.40;99.90;12.80;88037.00;;;;5089403;28;20246;-70
2022/05/01 01:47:06;;;;;;;0.10;0.10;;;11.40;99.90;12.80;88037.00;;;;5094077;28;20192;-71
2022/05/01 01:49:35;;;;;;;0.10;0.10;;;11.40;99.90;12.80;88037.00;;;;5093771;28;20219;-70
2022/05/01 01:52:05;;;;;;;0.10;0.10;;;11.40;99.90;12.80;88037.00;;;;5085318;28;20206;-70
2022/05/01 01:54:33;;;;;;;0.10;0.10;;;11.30;99.90;12.80;88037.00;;;;5080369;28;20297;-70
2022/05/01 01:57:01;;;;;;;0.10;0.10;;;11.20;99.90;12.80;88037.00;;;;5064770;28;20197;-70
2022/05/01 01:59:29;;;;;;;0.00;0.00;;;11.10;99.90;12.80;88037.00;;;;5074463;28;20280;-70
2022/05/01 02:01:57;;;;;;;0.10;0.10;;;10.90;99.90;12.80;88037.00;;;;5072958;28;20256;-70
2022/05/01 02:04:25;;;;;;;0.00;0.00;;;10.90;99.90;12.80;88037.00;;;;5072656;28;20246;-70
2022/05/01 02:06:53;;;;;;;0.10;0.10;;;11.00;99.90;12.80;88037.00;;;;5081386;28;20266;-70
2022/05/01 02:09:22;;;;;;;0.10;0.10;;;10.90;99.90;12.80;88037.00;;;;5093684;28;20193;-70
2022/05/01 02:11:50;;;;;;;0.10;0.10;;;10.80;99.90;12.80;88037.00;;;;5067937;28;20217;-71
2022/05/01 02:14:19;;;;;;;0.10;0.10;;;10.70;99.90;12.80;88037.00;;;;5073224;28;20630;-72
2022/05/01 02:16:48;;;;;;;0.10;0.10;;;10.70;99.90;12.80;88037.00;;;;5072972;28;20236;-72
2022/05/01 02:19:16;;;;;;;0.10;0.10;;;10.70;99.90;12.80;88037.00;;;;5081428;28;20714;-71
2022/05/01 02:21:44;;;;;;;0.10;0.10;;;10.60;99.90;12.80;88037.00;;;;5080564;28;20553;-71
2022/05/01 02:24:13;;;;;;;0.10;0.10;;;10.20;99.90;12.80;88037.00;;;;5093089;28;20252;-71
2022/05/01 02:26:42;;;;;;;0.10;0.10;;;9.90;99.90;12.80;88037.00;;;;5071574;28;20254;-71
2022/05/01 02:29:11;;;;;;;0.10;0.10;;;10.00;99.90;12.80;88037.00;;;;5073251;28;20244;-72
2022/05/01 02:31:41;;;;;;;0.10;0.10;;;10.10;99.90;12.80;88037.00;;;;5081511;28;20220;-72
2022/05/01 02:34:10;;;;;;;0.10;0.10;;;10.10;99.90;12.80;88037.00;;;;5073096;28;20228;-72
2022/05/01 02:36:39;;;;;;;0.10;0.10;;;10.10;99.90;12.80;88037.00;;;;5072941;28;20189;-71
2022/05/01 02:39:07;;;;;;;0.00;0.00;;;10.10;99.90;12.80;88037.00;;;;5073260;28;20189;-72
2022/05/01 02:41:35;;;;;;;0.10;0.10;;;9.90;99.90;12.80;88037.00;;;;5068322;28;20202;-70
2022/05/01 02:44:05;;;;;;;0.10;0.10;;;9.70;99.90;12.80;88037.00;;;;5089636;28;20279;-71
2022/05/01 02:46:33;;;;;;;0.10;0.10;;;9.60;99.90;12.80;88037.00;;;;5072189;28;20198;-70
2022/05/01 02:49:01;;;;;;;0.10;0.10;;;9.60;99.90;12.80;88037.00;;;;5057540;28;20197;-70
2022/05/01 02:51:29;;;;;;;0.10;0.10;;;9.60;99.90;12.80;88037.00;;;;5062613;28;20226;-71
2022/05/01 02:53:57;;;;;;;0.10;0.10;;;9.60;99.90;12.80;88037.00;;;;5073384;28;20198;-73
2022/05/01 02:56:26;;;;;;;0.10;0.10;;;9.70;99.90;12.80;88037.00;;;;5073526;28;20194;-72
2022/05/01 02:58:54;;;;;;;0.10;0.10;;;9.70;99.90;12.80;88037.00;;;;5072171;28;20201;-72
2022/05/01 03:01:23;;;;;;;0.10;0.10;;;9.80;99.90;12.80;88037.00;;;;5072585;28;20201;-72
2022/05/01 03:03:51;;;;;;;0.10;0.10;;;9.70;99.90;12.80;88037.00;;;;5092661;28;20261;-71
2022/05/01 03:06:19;;;;;;;0.10;0.10;;;9.40;99.90;12.80;88037.00;;;;5086102;28;20797;-72
2022/05/01 03:08:47;;;;;;;0.10;0.10;;;9.40;99.90;12.80;88037.00;;;;5053306;28;20202;-72
2022/05/01 03:11:15;;;;;;;0.10;0.10;;;9.50;99.90;12.80;88037.00;;;;5056633;28;20221;-72
2022/05/01 03:13:43;;;;;;;0.10;0.10;;;9.30;99.90;12.80;88037.00;;;;5092677;28;20615;-72
2022/05/01 03:16:12;;;;;;;0.10;0.10;;;9.40;99.90;12.80;88037.00;;;;5089381;28;20197;-72
2022/05/01 03:24:13;;;;;;;0.10;0.10;;;9.20;99.90;12.80;88037.00;;;;5091901;28;20220;-72
2022/05/01 03:26:41;;;;;;;0.10;0.10;;;9.10;99.90;12.80;88037.00;;;;5070122;28;20191;-72
2022/05/01 03:29:10;;;;;;;0.10;0.10;;;9.10;99.90;12.80;88037.00;;;;5052001;28;20212;-72
2022/05/01 03:31:38;;;;;;;0.10;0.10;;;9.00;99.90;12.80;88037.00;;;;5066885;28;20713;-73
2022/05/01 03:34:08;;;;;;;0.10;0.10;;;8.80;99.90;12.80;88037.00;;;;5071872;28;20202;-73
2022/05/01 03:36:36;;;;;;;0.10;0.10;;;8.90;99.90;12.80;88037.00;;;;5075820;28;20197;-73
2022/05/01 03:39:05;;;;;;;0.10;0.10;;;8.90;99.90;12.80;88037.00;;;;5092193;28;20193;-73
2022/05/01 03:41:34;;;;;;;0.10;0.10;;;8.90;99.90;12.80;88037.00;;;;5080626;28;20246;-73
2022/05/01 03:44:02;;;;;;;0.10;0.10;;;8.90;99.90;12.80;88037.00;;;;5085412;28;20213;-73
2022/05/01 03:46:30;;;;;;;0.10;0.10;;;8.90;99.90;12.80;88037.00;;;;5072066;28;20200;-73
2022/05/01 03:48:58;;;;;;;0.10;0.10;;;8.80;99.90;12.80;88037.00;;;;5071466;28;20655;-73
2022/05/01 03:51:31;;;;;;;0.10;0.10;;;8.80;99.90;12.80;88037.00;;;;5078528;28;20210;-72
2022/05/01 03:54:00;;;;;;;0.10;0.10;;;8.80;99.90;12.80;88037.00;;;;5072769;28;20651;-73
2022/05/01 03:56:28;;;;;;;0.10;0.10;;;8.80;99.90;12.80;88037.00;;;;5078682;28;20201;-73
2022/05/01 03:58:56;;;;;;;0.10;0.10;;;8.70;99.90;12.80;88037.00;;;;5069921;28;20197;-73
2022/05/01 04:01:24;;;;;;;0.00;0.00;;;8.70;99.90;12.80;88037.00;;;;5075261;28;20192;-73
2022/05/01 04:03:53;;;;;;;0.10;0.10;;;8.70;99.90;12.80;88037.00;;;;5092005;28;20227;-73
2022/05/01 04:06:23;;;;;;;0.10;0.10;;;8.80;99.90;12.80;88037.00;;;;5085015;28;20185;-73
2022/05/01 04:08:52;;;;;;;0.10;0.10;;;8.80;99.90;12.80;88037.00;;;;5071624;28;20193;-73
2022/05/01 04:11:20;;;;;;;0.10;0.10;;;8.80;99.90;12.80;88037.00;;;;5067837;28;20194;-73
2022/05/01 04:13:49;;;;;;;0.10;0.10;;;8.80;99.90;12.80;88037.00;;;;5071609;28;20276;-73
2022/05/01 04:16:18;;;;;;;0.10;0.10;;;8.80;99.90;12.80;88037.00;;;;5069143;28;20601;-73
2022/05/01 04:18:46;;;;;;;0.10;0.10;;;8.80;99.90;12.80;88037.00;;;;5074243;28;20279;-73
2022/05/01 04:21:14;;;;;;;0.10;0.10;;;8.90;99.90;12.80;88037.00;;;;5079501;28;20198;-73
2022/05/01 04:23:42;;;;;;;0.10;0.10;;;8.90;99.90;12.80;88037.00;;;;5067363;28;20903;-73
2022/05/01 04:26:11;;;;;;;0.08;0.08;;;8.90;99.90;12.80;88037.00;;;;5059795;28;20181;-73
2022/05/01 04:29:35;;;;;;;0.10;0.10;;;9.10;99.90;12.80;88037.00;;;;5064064;28;20217;-72
2022/05/01 04:31:28;;;;;;;0.10;0.10;;;9.00;99.90;12.80;88037.00;;;;5093394;28;20200;-70
2022/05/01 04:33:56;;;;;;;0.10;0.10;;;8.90;99.90;12.80;88037.00;;;;5095520;28;20181;-70
2022/05/01 04:36:25;;;;;;;0.10;0.10;;;8.90;99.90;12.80;88037.00;;;;5095470;28;20200;-71
2022/05/01 04:38:53;;;;;;;0.10;0.10;;;8.80;99.90;12.80;88037.00;;;;5081917;28;20212;-72
2022/05/01 04:41:23;;;;;;;0.03;0.03;;;8.80;99.90;12.80;88037.00;;;;5071067;28;20212;-72
2022/05/01 04:43:51;;;;;;;0.03;0.03;;;8.80;99.90;12.80;88037.00;;;;5073442;28;20193;-71
2022/05/01 04:46:19;;;;;;;0.10;0.10;;;8.80;99.90;12.80;88037.00;;;;5074663;28;20539;-70
2022/05/01 04:48:47;;;;;;;0.10;0.10;;;8.90;99.90;12.80;88037.00;;;;5074882;28;20259;-72
2022/05/01 04:51:15;;;;;;;0.10;0.10;;;8.80;99.90;12.80;88037.00;;;;5078296;28;20567;-71
2022/05/01 04:53:43;;;;;;;0.10;0.10;;;8.80;99.90;12.80;88037.00;;;;5055120;28;20730;-70
2022/05/01 04:58:57;;;;;;;0.10;0.10;;;8.90;99.90;12.80;88037.00;;;;5054962;28;20195;-70
2022/05/01 05:01:26;;;;;;;0.03;0.03;;;9.00;99.90;12.80;88037.00;;;;5066869;28;20224;-70
2022/05/01 05:03:54;;;;;;;0.10;0.10;;;9.10;99.90;12.80;88037.00;;;;5074905;28;20194;-70
2022/05/01 05:06:23;;;;;;;0.10;0.10;;;9.10;99.90;12.80;88037.00;;;;5072368;28;20191;-70
2022/05/01 05:11:37;;;;;;;0.10;0.10;;;9.20;99.90;12.80;88037.00;;;;5060533;28;20197;-70
2022/05/01 05:14:06;;;;;;;0.10;0.10;;;9.30;99.90;12.80;88037.00;;;;5055717;28;20210;-70
2022/05/01 05:16:35;;;;;;;0.10;0.10;;;9.30;99.90;12.80;88037.00;;;;5074858;28;20201;-71
2022/05/01 05:19:03;;;;;;;0.10;0.10;;;9.30;99.90;12.80;88037.00;;;;5087349;28;20193;-72
2022/05/01 05:21:31;;;;;;;0.10;0.10;;;9.40;99.90;12.80;88037.00;;;;5075137;28;20217;-72
2022/05/01 05:23:59;;;;;;;0.10;0.10;;;9.50;99.90;12.80;88037.00;;;;5074741;28;20675;-71
2022/05/01 05:26:27;;;;;;;0.10;0.10;;;9.40;99.90;12.80;88037.00;;;;5073960;28;20507;-71
2022/05/01 05:28:54;;;;;;;0.03;0.03;;;9.60;99.90;12.80;88037.00;;;;5075026;28;20592;-72
2022/05/01 05:31:24;;;;;;;0.00;0.00;;;9.60;99.90;12.80;88037.00;;;;5085270;28;20601;-71
2022/05/01 05:33:52;;;;;;;0.10;0.10;;;9.60;99.90;12.80;88037.00;;;;5072966;28;20295;-71
2022/05/01 05:36:20;;;;;;;0.10;0.10;;;9.60;99.90;12.80;88037.00;;;;5066112;28;20284;-71
2022/05/01 05:38:48;;;;;;;0.10;0.10;;;9.80;99.90;12.80;88037.00;;;;5074212;28;20202;-71
2022/05/01 05:41:18;;;;;;;0.10;0.10;;;9.90;99.90;12.80;88037.00;;;;5077682;28;20232;-71
2022/05/01 05:43:46;;;;;;;0.10;0.10;;;9.90;99.90;12.80;88037.00;;;;5086761;28;20208;-71
2022/05/01 05:46:14;;;;;;;0.10;0.10;;;10.00;99.90;12.80;88037.00;;;;5071972;28;20239;-71
2022/05/01 05:48:44;;;;;;;0.10;0.10;;;9.90;99.90;12.80;88037.00;;;;5073751;28;20190;-71
2022/05/01 05:51:12;;;;;;;0.10;0.10;;;10.10;99.90;12.80;88037.00;;;;5070931;28;20667;-71
2022/05/01 05:53:40;;;;;;;0.00;0.00;;;10.20;99.90;12.80;88037.00;;;;5072096;28;20306;-72
2022/05/01 05:56:09;;;;;;;0.10;0.10;;;10.10;99.90;12.80;88037.00;;;;5090702;28;20197;-71
2022/05/01 05:58:37;;;;;;;0.10;0.10;;;10.30;99.90;12.80;88037.00;;;;5053690;28;20249;-71
2022/05/01 06:01:05;;;;;;;0.10;0.10;;;10.40;99.90;12.80;88037.00;;;;5061322;28;20194;-71
2022/05/01 06:03:33;;;;;;;0.08;0.08;;;10.50;99.90;12.80;88037.00;;;;5073634;28;20723;-71
2022/05/01 06:06:03;;;;;;;0.10;0.10;;;10.60;99.90;12.80;88037.00;;;;5074155;28;20238;-71
2022/05/01 06:08:31;;;;;;;0.10;0.10;;;10.70;99.90;12.80;88037.00;;;;5073452;28;20201;-72
2022/05/01 06:10:59;;;;;;;0.10;0.10;;;10.80;99.90;12.80;88037.00;;;;5073035;28;20226;-71
2022/05/01 06:13:27;;;;;;;0.10;0.10;;;11.00;99.90;12.80;88037.00;;;;5071983;28;20218;-71
2022/05/01 06:15:55;;;;;;;0.08;0.08;;;11.00;99.90;12.80;88037.00;;;;5078331;28;20232;-71
2022/05/01 06:18:23;;;;;;;0.10;0.10;;;10.80;99.90;12.80;88037.00;;;;5074664;28;20252;-72
2022/05/01 06:20:51;;;;;;;0.10;0.10;;;10.90;99.90;12.80;88037.00;;;;5068776;28;20247;-71
2022/05/01 06:23:28;;;;;;;0.10;0.10;;;10.90;99.90;12.80;88037.00;;;;5073047;28;20216;-71
2022/05/01 06:25:56;;;;;;;0.00;0.00;;;11.10;99.90;12.80;88037.00;;;;5073284;28;20212;-72
2022/05/01 06:28:24;;;;;;;0.10;0.10;;;11.20;99.90;12.80;88037.00;;;;5073333;28;20198;-71
2022/05/01 06:30:55;;;;;;;0.05;0.05;;;11.40;99.90;12.80;88037.00;;;;5077752;28;20182;-71
2022/05/01 06:33:24;;;;;;;0.10;0.10;;;11.50;99.90;12.80;88037.00;;;;5093230;28;20224;-71
2022/05/01 06:35:54;;;;;;;0.10;0.10;;;11.50;99.90;12.80;88037.00;;;;5092737;28;20205;-70
2022/05/01 06:38:23;;;;;;;0.10;0.10;;;11.60;99.90;12.80;88037.00;;;;5093144;28;20568;-71
2022/05/01 06:40:52;;;;;;;0.10;0.10;;;11.70;99.90;12.80;88037.00;;;;5088124;28;20190;-71
2022/05/01 06:43:20;;;;;;;0.10;0.10;;;11.70;99.90;12.80;88037.00;;;;5073732;28;20813;-72
2022/05/01 06:45:49;;;;;;;0.10;0.10;;;11.80;99.90;12.80;88037.00;;;;5089774;28;20592;-72
2022/05/01 06:48:19;;;;;;;0.10;0.10;;;11.50;99.90;12.80;88037.00;;;;5068528;28;20280;-71
2022/05/01 06:50:47;;;;;;;0.10;0.10;;;11.70;99.90;12.80;88037.00;;;;5072563;28;20216;-71
2022/05/01 06:53:16;;;;;;;0.08;0.08;;;11.70;99.90;12.80;88037.00;;;;5074024;28;20222;-70
2022/05/01 06:55:44;;;;;;;0.10;0.10;;;11.80;99.90;12.80;88037.00;;;;5081516;28;20205;-71
2022/05/01 06:58:18;;;;;;;0.10;0.10;;;11.90;99.90;12.80;88037.00;;;;5070538;28;20198;-71
2022/05/01 07:00:46;;;;;;;0.10;0.10;;;11.90;99.90;12.80;88037.00;;;;5054988;28;20201;-71
2022/05/01 07:03:14;;;;;;;0.10;0.10;;;12.00;99.90;12.80;88037.00;;;;5052366;28;20202;-71
2022/05/01 07:05:43;;;;;;;0.10;0.10;;;12.10;99.90;12.80;88037.00;;;;5055225;28;20210;-71
2022/05/01 07:08:10;;;;;;;0.10;0.10;;;12.10;99.90;12.80;88037.00;;;;5074191;28;20189;-72
2022/05/01 07:10:39;;;;;;;0.10;0.10;;;12.00;99.90;12.80;88037.00;;;;5066901;28;20209;-72
2022/05/01 07:13:07;;;;;;;0.10;0.10;;;11.90;99.90;12.80;88037.00;;;;5053569;28;20264;-72
2022/05/01 07:15:36;;;;;;;0.10;0.10;;;12.00;99.90;12.80;88037.00;;;;5063823;28;20220;-72
2022/05/01 07:18:05;;;;;;;0.10;0.10;;;12.10;99.90;12.80;88037.00;;;;5072082;28;20231;-72
2022/05/01 07:20:34;;;;;;;0.10;0.10;;;12.10;99.90;12.80;88037.00;;;;5072304;28;20216;-72
2022/05/01 07:23:03;;;;;;;0.10;0.10;;;12.40;99.90;12.80;88037.00;;;;5072090;28;20559;-72
2022/05/01 07:25:31;;;;;;;0.00;0.00;;;12.60;99.90;12.80;88037.00;;;;5071614;28;20224;-72
2022/05/01 07:28:00;;;;;;;0.08;0.08;;;12.80;99.90;12.80;88037.00;;;;5060024;28;20686;-72
2022/05/01 07:30:28;;;;;;;0.10;0.10;;;13.00;99.90;12.80;88037.00;;;;5061626;28;20201;-71
2022/05/01 07:32:58;;;;;;;0.10;0.10;;;13.10;99.90;12.80;88037.00;;;;5058696;28;20193;-72
2022/05/01 07:35:26;;;;;;;0.10;0.10;;;13.20;99.90;12.80;88037.00;;;;5054028;28;20227;-73
2022/05/01 07:38:01;;;;;;;0.10;0.10;;;13.20;99.90;12.80;88037.00;;;;5052117;28;20198;-72
2022/05/01 07:40:29;;;;;;;0.10;0.10;;;13.30;99.90;12.80;88037.00;;;;5063844;28;20199;-72
2022/05/01 07:42:57;;;;;;;0.10;0.10;;;13.30;99.90;12.80;88037.00;;;;5053352;28;20208;-72
2022/05/01 07:45:25;;;;;;;0.10;0.10;;;13.40;99.90;12.80;88037.00;;;;5074534;28;20214;-72
2022/05/01 07:47:59;;;;;;;0.10;0.10;;;13.40;99.90;12.80;88037.00;;;;5072344;28;20272;-72
2022/05/01 07:50:28;;;;;;;0.10;0.10;;;13.60;99.90;12.80;88037.00;;;;5078879;28;20662;-72
2022/05/01 07:52:56;;;;;;;0.10;0.10;;;13.60;99.90;12.80;88037.00;;;;5070737;28;20255;-72
2022/05/01 07:55:24;;;;;;;0.10;0.10;;;13.70;99.90;12.80;88037.00;;;;5083320;28;20220;-72
2022/05/01 07:57:52;;;;;;;0.10;0.10;;;13.90;99.90;12.80;88037.00;;;;5079938;28;20302;-71
2022/05/01 08:00:20;;;;;;;0.10;0.10;;;14.00;99.90;12.80;88037.00;;;;5070972;28;20197;-71
2022/05/01 08:05:35;;;;;;;0.10;0.10;;;14.10;99.90;12.80;88037.00;;;;5070794;28;20220;-72
2022/05/01 08:08:04;;;;;;;0.00;0.00;;;14.30;99.90;12.80;88037.00;;;;5087662;28;20596;-72
2022/05/01 08:10:32;;;;;;;0.10;0.10;;;14.50;99.90;12.80;88037.00;;;;5092136;28;20193;-72
2022/05/01 08:13:00;;;;;;;0.10;0.10;;;14.60;99.90;12.80;88037.00;;;;5069997;28;20668;-72
2022/05/01 08:15:28;;;;;;;0.00;0.00;;;14.40;99.90;12.80;88037.00;;;;5057030;28;20252;-73
2022/05/01 08:21:04;;;;;;;0.05;0.05;;;14.60;99.90;12.80;88037.00;;;;5070959;28;20567;-72
2022/05/01 08:21:05;;;;;;;0.10;0.10;;;14.80;99.90;12.80;88037.00;;;;5070648;28;20190;-72
2022/05/01 08:23:33;;;;;;;0.00;0.00;;;15.10;99.90;12.80;88037.00;;;;5085809;28;20211;-72
2022/05/01 08:26:03;;;;;;;0.10;0.10;;;15.30;99.90;12.80;88037.00;;;;5085740;28;20225;-72
2022/05/01 08:28:31;;;;;;;0.10;0.10;;;15.40;99.90;12.80;88037.00;;;;5069815;28;20255;-72
2022/05/01 08:31:00;;;;;;;0.10;0.10;;;15.50;99.90;12.80;88037.00;;;;5072190;28;20264;-72
2022/05/01 08:33:29;;;;;;;0.10;0.10;;;15.60;99.90;12.80;88037.00;;;;5071402;28;20202;-72
2022/05/01 08:35:59;;;;;;;0.10;0.10;;;15.70;99.90;12.80;88037.00;;;;5071043;28;20459;-72
2022/05/01 08:38:27;;;;;;;0.10;0.10;;;15.60;99.90;12.80;88037.00;;;;5052433;28;20194;-72
2022/05/01 08:40:55;;;;;;;0.10;0.10;;;15.70;99.90;12.80;88037.00;;;;5082037;28;20200;-72
2022/05/01 08:43:25;;;;;;;0.10;0.10;;;15.60;99.90;12.80;88037.00;;;;5072511;28;20194;-72
2022/05/01 08:46:16;;;;;;;0.10;0.10;;;15.60;99.90;12.80;88037.00;;;;5066162;28;20217;-73
2022/05/01 08:48:58;;;;;;;0.10;0.10;;;15.70;99.90;12.80;88037.00;;;;5050540;28;20649;-72
2022/05/01 08:51:30;;;;;;;0.00;0.00;;;15.80;99.90;12.80;88037.00;;;;5071874;28;20194;-73
2022/05/01 08:54:00;;;;;;;0.10;0.10;;;15.90;99.90;12.80;88037.00;;;;5075250;28;20214;-72
2022/05/01 08:56:28;;;;;;;0.00;0.00;;;16.10;99.90;12.80;88037.00;;;;5068060;28;20660;-72
2022/05/01 08:58:57;;;;;;;0.00;0.00;;;16.20;99.90;12.80;88037.00;;;;5060792;28;20220;-72
2022/05/01 09:01:25;;;;;;;0.10;0.10;;;16.30;99.90;12.80;88037.00;;;;5061932;28;20200;-73
2022/05/01 09:03:54;;;;;;;0.10;0.10;;;16.40;99.90;12.80;88037.00;;;;5078084;28;20197;-72
2022/05/01 09:06:22;;;;;;;0.00;0.00;;;16.40;99.90;12.80;88037.00;;;;5077879;28;20193;-72
2022/05/01 09:08:52;;;;;;;0.00;0.00;;;16.60;99.90;12.80;88037.00;;;;5073794;28;20209;-71
2022/05/01 09:14:07;;;;;;;0.00;0.00;;;16.50;99.90;12.80;88037.00;;;;5061109;28;20218;-73
2022/05/01 09:16:36;;;;;;;0.05;0.05;;;16.40;99.90;12.80;88037.00;;;;5068609;28;20530;-72
2022/05/01 09:19:05;;;;;;;0.00;0.00;;;16.60;99.90;12.80;88037.00;;;;5075113;28;20284;-71
2022/05/01 09:21:50;;;;;;;0.00;0.00;;;16.80;99.90;12.80;88037.00;;;;5075288;28;20194;-71
2022/05/01 09:24:28;;;;;;;0.00;0.00;;;17.00;99.90;12.80;88037.00;;;;5075685;28;20604;-71
2022/05/01 09:26:58;;;;;;;0.00;0.00;;;17.00;99.90;12.80;88037.00;;;;5075597;28;20192;-71
2022/05/01 09:29:32;;;;;;;0.10;0.10;;;17.10;99.90;12.80;88037.00;;;;5076006;28;20174;-72
2022/05/01 09:32:01;;;;;;;0.00;0.00;;;17.30;99.90;12.80;88037.00;;;;5075570;28;20228;-72
2022/05/01 09:34:32;;;;;;;0.00;0.00;;;17.50;99.90;12.80;88037.00;;;;5074981;28;20292;-71
2022/05/01 09:37:03;;;;;;;0.00;0.00;;;17.60;99.90;12.80;88037.00;;;;5075059;28;20182;-71
2022/05/01 09:39:33;;;;;;;0.00;0.00;;;17.60;99.90;12.80;88037.00;;;;5075282;28;20599;-72
2022/05/01 09:42:16;;;;;;;0.10;0.10;;;17.60;99.90;12.80;88037.00;;;;5075118;28;20189;-71
2022/05/01 09:44:44;;;;;;;0.00;0.00;;;17.70;99.90;12.80;88037.00;;;;5075243;28;20216;-71
2022/05/01 09:47:37;;;;;;;0.00;0.00;;;17.80;99.90;12.80;88037.00;;;;5075379;28;20194;-71
2022/05/01 09:50:08;;;;;;;0.00;0.00;;;18.00;99.90;317.70;51969.00;;;;5075392;28;20190;-71
2022/05/01 09:53:00;;;;;;;0.00;0.00;;;18.10;99.90;317.90;51954.00;;;;5075664;28;20190;-73
2022/05/01 09:55:31;;;;;;;0.00;0.00;;;18.10;99.90;318.20;51929.00;;;;5074184;28;20259;-72
2022/05/01 09:58:06;;;;;;;0.00;0.00;;;18.20;99.90;318.10;51933.00;;;;5075763;28;20205;-72
2022/05/01 10:00:44;;;;;;;0.00;0.00;;;18.20;99.90;318.60;51901.00;;;;5074173;28;20735;-72
2022/05/01 10:03:24;;;;;;;0.00;0.00;;;18.40;99.90;318.60;51897.00;;;;5073920;28;20194;-72
2022/05/01 10:05:55;;;;;;;0.00;0.00;;;18.50;99.90;318.20;51930.00;;;;5063197;28;20246;-70
2022/05/01 10:08:24;;;;;;;0.00;0.00;;;18.40;99.90;318.20;51925.00;;;;5087673;28;20190;-71
2022/05/01 10:10:58;;;;;;;0.10;0.10;;;18.40;99.90;318.40;51909.00;;;;5074941;28;20198;-71
2022/05/01 10:13:28;;;;;;;0.00;0.00;;;18.40;99.90;318.90;51875.00;;;;5073669;28;20181;-71
2022/05/01 10:16:08;;;;;;;0.00;0.00;;;18.50;99.90;319.00;51865.00;;;;5072995;28;20217;-71
2022/05/01 10:18:38;;;;;;;0.00;0.00;;;18.60;99.90;318.70;51883.00;;;;5073494;28;20204;-70
2022/05/01 10:21:28;;;;;;;0.00;0.00;;;18.70;99.90;319.10;51856.00;;;;5074343;28;20198;-71
2022/05/01 10:23:58;;;;;;;0.00;0.00;;;18.90;99.90;319.50;51824.00;;;;5070044;28;20194;-71
2022/05/01 10:26:34;;;;;;;0.00;0.00;;;19.10;99.90;319.80;51801.00;;;;5073230;28;20216;-71
2022/05/01 10:32:20;;;;;;;0.00;0.00;;;19.30;99.90;319.50;51814.00;;;;5062742;28;20563;-71
2022/05/01 10:32:57;;;;;;;0.00;0.00;;;19.30;99.90;319.60;51812.00;;;;5063696;28;20567;-72
2022/05/01 10:36:22;;;;;;;0.00;0.00;;;19.30;99.90;319.00;51853.00;;;;5062415;28;20264;-72
2022/05/01 10:39:09;;;;;;;0.00;0.00;;;19.10;99.90;319.80;51793.00;;;;5025116;28;20218;-71
2022/05/01 10:41:46;;;;;;;0.00;0.00;;;19.30;99.90;320.40;51749.00;;;;5077805;28;20200;-72
2022/05/01 10:44:30;;;;;;;0.00;0.00;;;19.60;99.90;320.90;51711.00;;;;5076187;28;20269;-70
2022/05/01 10:47:12;;;;;;;0.00;0.00;;;19.80;99.90;320.60;51735.00;;;;5076038;28;20280;-70
2022/05/01 10:49:46;;;;;;;0.00;0.00;;;19.80;99.90;321.30;51682.00;;;;5084960;28;20190;-70
2022/05/01 10:52:18;;;;;;;0.00;0.00;;;20.00;99.90;320.90;51701.00;;;;5069971;28;20284;-71
2022/05/01 10:54:52;;;;;;;0.00;0.00;;;20.00;99.90;321.50;51664.00;;;;5071106;28;20243;-71
2022/05/01 10:57:23;;;;;;;0.00;0.00;;;20.20;99.90;321.60;51656.00;;;;5072348;28;20197;-71
2022/05/01 11:00:11;;;;;;;0.00;0.00;;;20.30;99.90;320.90;51708.00;;;;5078261;28;20193;-71
2022/05/01 11:02:42;;;;;;;0.00;0.00;;;20.20;99.80;321.40;51658.00;;;;5063649;28;20564;-71
2022/05/01 11:05:32;;;;;;;0.00;0.00;;;20.20;99.90;321.60;51659.00;;;;5066245;28;20215;-71
2022/05/01 11:08:04;;;;;;;0.00;0.00;;;20.20;99.90;321.30;51677.00;;;;5073194;28;20202;-71
2022/05/01 11:10:32;;;;;;;0.00;0.00;;;20.10;99.90;320.90;51699.00;;;;5073407;28;20258;-71
2022/05/01 11:13:02;;;;;;;0.00;0.00;;;20.00;99.90;320.70;51717.00;;;;5073399;28;20205;-72
2022/05/01 11:15:30;;;;;;;0.00;0.00;;;19.90;99.90;320.20;51756.00;;;;5069520;28;20236;-72
2022/05/01 11:17:58;;;;;;;0.00;0.00;;;19.70;99.80;320.00;51770.00;;;;5066874;28;20209;-71
2022/05/01 11:20:34;;;;;;;0.10;0.10;;;19.60;99.60;319.70;51794.00;;;;5073424;28;20205;-71
2022/05/01 11:23:31;;;;;;;0.00;0.00;;;19.50;99.50;319.10;51836.00;;;;5057623;28;20232;-72
2022/05/01 11:26:13;;;;;;;0.00;0.00;;;19.20;99.90;319.00;51819.00;;;;5069659;28;20229;-72
2022/05/01 11:29:09;;;;;;;0.00;0.00;;;19.10;99.90;318.90;51817.00;;;;5092543;28;20189;-72
2022/05/01 11:31:51;;;;;;;0.00;0.00;;;19.00;99.90;318.60;51843.00;;;;5052706;28;20550;-71
2022/05/01 11:34:37;;;;;;;0.00;0.00;;;18.90;99.90;318.40;51864.00;;;;5052364;28;20304;-72